• Join FlightAware (Why Join?)
  • Login
  • US Flag 
10:25AM EST


 

Airport Tracker/Info


-or-


 

Live Flight TrackerFlight Track Log ✈ FLG3776 ✈ 25-Apr-2013 ✈ KMSP - KAZO

Flight Track Log - Related Links

Times and Time Zones

All times are in EDT time to prevent confusion due to time zone crossing. See the FLG3776 flight status page for this flight to view local times or setup timezone preferences in your user account.

Time Position Orientation Groundspeed Altitude Reporting Facility
EDT Latitude Longitude Course Direction KTS MPH feet Rate Location/Type
09:01PM 44.8500 -93.2000 117° Southeast 166 191 2,700  Level Minneapolis TRACON
09:01PM 44.8381 -93.1800 130° Southeast 174 200 3,200 1,740 Climbing Minneapolis Center
09:02PM 44.8078 -93.0989 118° Southeast 241 277 5,200 2,220 Climbing Minneapolis Center
09:03PM 44.7403 -92.7504 110° East  Level Estimated
09:03PM 44.7786 -92.9939 111° Southeast 283 326 7,800  Level Minneapolis Center
09:04PM 44.6927 -92.5938 118° Southeast  Level Estimated
09:04PM 44.7464 -92.8794 112° Southeast 311 358 10,500  Level Minneapolis Center
09:05PM 44.6449 -92.4375 115° Southeast  Level Estimated
09:05PM 44.6992 -92.7239 113° Southeast 371 427 12,200  Level Minneapolis Center
09:06PM 44.5808 -92.2845 117° Southeast  Level FlightAware Approximate
09:06PM 44.6564 -92.5814 113° Southeast 397 457 13,800  Level Minneapolis Center
09:07PM 44.6119 -92.4325 113° Southeast 413 475 15,600 1,800 Climbing Minneapolis Center
09:08PM 44.5619 -92.2669 113° Southeast 422 486 17,600 1,620 Climbing Minneapolis Center
09:10PM 44.5206 -92.1336 113° Southeast 418 481 19,000 1,380 Climbing Minneapolis Center
09:11PM 44.4647 -91.9533 113° Southeast 420 483 20,500 1,320 Climbing Minneapolis Center
09:12PM 44.4186 -91.7981 113° Southeast 430 495 21,800 1,200 Climbing Minneapolis Center
09:13PM 44.3703 -91.6411 113° Southeast 438 504 23,100 1,080 Climbing Minneapolis Center
09:14PM 44.3208 -91.4836 114° Southeast 443 510 24,100 960 Climbing Minneapolis Center
09:15PM 44.2708 -91.3206 113° Southeast 453 521 25,100 960 Climbing Minneapolis Center
09:16PM 44.2211 -91.1628 114° Southeast 458 527 26,100 900 Climbing Minneapolis Center
09:17PM 44.1589 -90.9678 114° Southeast 461 531 27,000 420 Climbing Minneapolis Center
09:18PM 44.1050 -90.7989 114° Southeast 474 545 27,000  Level Minneapolis Center
09:19PM 44.0497 -90.6247 114° Southeast 491 565 27,000  Level Minneapolis Center
09:20PM 43.9872 -90.4306 114° Southeast 499 574 27,000  Level Minneapolis Center
09:21PM 43.9300 -90.2533 114° Southeast 501 577 27,000  Level Minneapolis Center
09:22PM 43.8708 -90.0764 115° Southeast 504 580 27,000  Level Minneapolis Center
09:23PM 43.8125 -89.8992 114° Southeast 506 582 27,000  Level Minneapolis Center
09:24PM 43.7450 -89.6936 114° Southeast 504 580 27,000  Level Minneapolis Center
09:25PM 43.6861 -89.5172 115° Southeast 506 582 27,000  Level Minneapolis Center
09:26PM 43.6272 -89.3431 115° Southeast 504 580 27,000  Level Minneapolis Center
09:27PM 43.5772 -89.1981 115° Southeast 503 579 27,000  Level Chicago Center
09:28PM 43.5172 -89.0222 115° Southeast 508 585 27,000  Level Chicago Center
09:29PM 43.4572 -88.8483 115° Southeast 505 581 27,000  Level Chicago Center
09:30PM 43.3875 -88.6461 115° Southeast 507 583 27,000  Level Chicago Center
09:31PM 43.3286 -88.4761 115° Southeast 509 586 27,000  Level Chicago Center
09:32PM 43.2669 -88.3022 116° Southeast 512 589 27,000  Level Chicago Center
09:33PM 43.1961 -88.0994 116° Southeast 509 586 27,000  Level Chicago Center
09:34PM 43.1350 -87.9253 116° Southeast 509 586 27,000 -60 Level Chicago Center
09:35PM 43.0736 -87.7525 116° Southeast 506 582 26,900 -540 Descending Chicago Center
09:36PM 43.0111 -87.5778 116° Southeast 511 588 25,900 -1,080 Descending Chicago Center
09:37PM 42.9475 -87.4056 117° Southeast 509 586 24,700 -1,560 Descending Chicago Center
09:38PM 42.8864 -87.2372 116° Southeast 509 586 22,700 -1,980 Descending Chicago Center
09:39PM 42.8253 -87.0703 116° Southeast 498 573 20,700 -2,100 Descending Chicago Center
09:40PM 42.7544 -86.8789 117° Southeast 479 551 18,500 -1,680 Descending Chicago Center
09:41PM 42.6956 -86.7228 117° Southeast 470 541 17,300 -1,260 Descending Chicago Center
09:42PM 42.6400 -86.5697 116° Southeast 459 528 16,000 -1,140 Descending Chicago Center
09:43PM 42.5847 -86.4208 117° Southeast 449 517 15,000 -1,620 Descending Chicago Center
09:44PM 42.5303 -86.2786 117° Southeast 434 499 12,700 -2,100 Descending Chicago Center
09:45PM 42.4747 -86.1314 117° Southeast 374 430 10,700 -1,620 Descending Chicago Center
09:47PM 42.4339 -86.0294 118° Southeast 317 365 9,500 -1,440 Descending Chicago Center
09:48PM 42.3953 -85.9372 120° Southeast 291 335 7,800 -1,740 Descending Chicago Center
09:49PM 42.3464 -85.8575 130° Southeast 282 325 6,000 -1,740 Descending Chicago Center
09:50PM 42.2969 -85.7842 132° Southeast 270 311 4,300 -1,260 Descending Chicago Center
09:51PM 42.2497 -85.7106 131° Southeast 245 282 3,500 -600 Descending Chicago Center
09:52PM 42.2097 -85.6533 133° Southeast 217 250 3,100 -360 Descending Chicago Center
09:53PM 42.1622 -85.6372 166° South 183 211 2,800 -300 Descending Chicago Center